createdAt,value
2023-04-17T00:00:15.066Z,5
2023-04-17T00:01:14.361Z,5
2023-04-17T00:02:14.720Z,5
2023-04-17T00:03:15.646Z,5
2023-04-17T00:04:16.648Z,5
2023-04-17T00:05:14.930Z,5
2023-04-17T00:06:14.850Z,5
2023-04-17T00:07:14.761Z,7
2023-04-17T00:08:15.186Z,7
2023-04-17T00:09:15.339Z,7
2023-04-17T00:10:14.873Z,7
2023-04-17T00:11:19.466Z,7
2023-04-17T00:12:14.365Z,6
2023-04-17T00:13:14.408Z,6
2023-04-17T00:14:14.884Z,6
2023-04-17T00:15:15.093Z,6
2023-04-17T00:16:15.248Z,6
2023-04-17T00:17:14.436Z,7
2023-04-17T00:18:14.605Z,7
2023-04-17T00:19:15.436Z,7
2023-04-17T00:20:15.249Z,7
2023-04-17T00:21:15.083Z,7
2023-04-17T00:22:14.331Z,4
2023-04-17T00:23:14.628Z,4
2023-04-17T00:24:14.790Z,4
2023-04-17T00:25:15.279Z,4
2023-04-17T00:26:14.553Z,4
2023-04-17T00:27:14.776Z,5
2023-04-17T00:28:14.972Z,5
2023-04-17T00:29:15.069Z,5
2023-04-17T00:30:14.566Z,5
2023-04-17T00:31:14.920Z,5
2023-04-17T00:32:15.608Z,4
2023-04-17T00:33:14.703Z,4
2023-04-17T00:34:14.608Z,4
2023-04-17T00:35:14.763Z,4
2023-04-17T00:36:15.080Z,4
2023-04-17T00:37:14.377Z,3
2023-04-17T00:38:14.829Z,3
2023-04-17T00:39:15.793Z,3
2023-04-17T00:40:15.175Z,3
2023-04-17T00:41:14.371Z,3
2023-04-17T00:42:14.441Z,4
2023-04-17T00:43:14.716Z,4
2023-04-17T00:44:14.872Z,4
2023-04-17T00:45:14.492Z,4
2023-04-17T00:46:14.424Z,4
2023-04-17T00:47:14.301Z,5
2023-04-17T00:48:14.537Z,5
2023-04-17T00:49:15.426Z,5
2023-04-17T00:50:15.272Z,5
2023-04-17T00:51:14.367Z,5
2023-04-17T00:52:14.775Z,5
2023-04-17T00:53:14.974Z,5
2023-04-17T00:54:14.991Z,5
2023-04-17T00:55:14.540Z,5
2023-04-17T00:56:15.030Z,5
2023-04-17T00:57:14.358Z,4
2023-04-17T00:58:14.644Z,4
2023-04-17T00:59:15.420Z,4
2023-04-17T01:00:14.986Z,4
2023-04-17T01:01:14.476Z,4
2023-04-17T01:02:15.128Z,1
2023-04-17T01:03:15.822Z,1
2023-04-17T01:04:15.629Z,1
2023-04-17T01:05:14.326Z,1
2023-04-17T01:06:14.382Z,1
2023-04-17T01:07:14.916Z,0
2023-04-17T01:08:15.259Z,0
2023-04-17T01:09:15.005Z,0
2023-04-17T01:10:14.448Z,0
2023-04-17T01:11:15.044Z,0
2023-04-17T01:12:15.113Z,3
2023-04-17T01:13:14.305Z,3
2023-04-17T01:14:15.056Z,3
2023-04-17T01:15:15.174Z,3
2023-04-17T01:16:15.086Z,3
2023-04-17T01:17:14.700Z,1
2023-04-17T01:18:14.917Z,1
2023-04-17T01:19:15.922Z,1
2023-04-17T01:20:14.141Z,1
2023-04-17T01:21:14.559Z,1
2023-04-17T01:22:14.942Z,3
2023-04-17T01:23:14.874Z,3
2023-04-17T01:24:14.283Z,3
2023-04-17T01:25:14.916Z,3
2023-04-17T01:26:14.181Z,3
2023-04-17T01:27:14.539Z,5
2023-04-17T01:28:14.888Z,5
2023-04-17T01:29:15.828Z,5
2023-04-17T01:30:14.560Z,5
2023-04-17T01:31:14.542Z,5
2023-04-17T01:32:14.594Z,3
2023-04-17T01:33:14.796Z,3
2023-04-17T01:34:14.915Z,3
2023-04-17T01:35:14.331Z,3
2023-04-17T01:36:14.741Z,3
2023-04-17T01:37:15.246Z,4
2023-04-17T01:38:14.254Z,4
2023-04-17T01:39:15.324Z,4
2023-04-17T01:40:14.891Z,4
2023-04-17T01:41:15.083Z,4
2023-04-17T01:42:14.812Z,5
2023-04-17T01:43:15.295Z,5
2023-04-17T01:44:14.217Z,5
2023-04-17T01:45:14.435Z,5
2023-04-17T01:46:15.287Z,5
2023-04-17T01:47:15.347Z,5
2023-04-17T01:48:14.469Z,5
2023-04-17T01:49:15.110Z,5
2023-04-17T01:50:15.008Z,5
2023-04-17T01:51:15.036Z,5
2023-04-17T01:52:15.350Z,4
2023-04-17T01:53:14.830Z,4
2023-04-17T01:54:14.597Z,4
2023-04-17T01:55:14.652Z,4
2023-04-17T01:56:14.880Z,4
2023-04-17T01:57:14.150Z,0
2023-04-17T01:58:14.620Z,0
2023-04-17T01:59:15.164Z,0
2023-04-17T02:00:14.972Z,0
2023-04-17T02:01:15.221Z,0
2023-04-17T02:02:15.139Z,4
2023-04-17T02:03:15.379Z,4
2023-04-17T02:04:15.538Z,4
2023-04-17T02:05:15.189Z,4
2023-04-17T02:06:14.509Z,4
2023-04-17T02:07:14.432Z,0
2023-04-17T02:08:14.951Z,0
2023-04-17T02:09:15.671Z,0
2023-04-17T02:10:14.534Z,0
2023-04-17T02:11:14.399Z,0
2023-04-17T02:12:15.229Z,1
2023-04-17T02:13:15.061Z,1
2023-04-17T02:14:15.080Z,1
2023-04-17T02:15:14.240Z,1
2023-04-17T02:16:15.033Z,1
2023-04-17T02:17:14.967Z,3
2023-04-17T02:18:15.242Z,3
2023-04-17T02:19:15.180Z,3
2023-04-17T02:20:14.979Z,3
2023-04-17T02:21:14.760Z,3
2023-04-17T02:22:14.329Z,5
2023-04-17T02:23:14.594Z,5
2023-04-17T02:24:14.774Z,5
2023-04-17T02:25:15.186Z,5
2023-04-17T02:26:14.534Z,5
2023-04-17T02:27:14.739Z,5
2023-04-17T02:28:15.086Z,5
2023-04-17T02:29:16.009Z,5
2023-04-17T02:30:14.516Z,5
2023-04-17T02:31:14.885Z,5
2023-04-17T02:32:14.733Z,0
2023-04-17T02:33:15.484Z,0
2023-04-17T02:34:14.327Z,0
2023-04-17T02:35:14.612Z,0
2023-04-17T02:36:14.608Z,0
2023-04-17T02:37:14.826Z,1
2023-04-17T02:38:15.130Z,1
2023-04-17T02:39:14.986Z,1
2023-04-17T02:40:14.822Z,1
2023-04-17T02:41:14.930Z,1
2023-04-17T02:42:14.402Z,5
2023-04-17T02:43:14.521Z,5
2023-04-17T02:44:15.725Z,5
2023-04-17T02:45:14.990Z,5
2023-04-17T02:46:14.470Z,5
2023-04-17T02:47:14.750Z,5
2023-04-17T02:48:15.044Z,5
2023-04-17T02:49:15.430Z,5
2023-04-17T02:50:14.368Z,5
2023-04-17T02:51:14.720Z,5
2023-04-17T02:52:14.900Z,6
2023-04-17T02:53:14.995Z,6
2023-04-17T02:54:14.374Z,6
2023-04-17T02:55:14.464Z,6
2023-04-17T02:56:14.767Z,6
2023-04-17T02:57:15.138Z,4
2023-04-17T02:58:14.685Z,4
2023-04-17T02:59:15.609Z,4
2023-04-17T03:00:14.998Z,4
2023-04-17T03:01:15.417Z,4
2023-04-17T03:02:15.003Z,5
2023-04-17T03:03:16.005Z,5
2023-04-17T03:04:15.564Z,5
2023-04-17T03:05:14.372Z,5
2023-04-17T03:06:14.492Z,5
2023-04-17T03:07:14.818Z,5
2023-04-17T03:08:14.974Z,5
2023-04-17T03:09:14.721Z,5
2023-04-17T03:10:14.655Z,5
2023-04-17T03:11:14.741Z,5
2023-04-17T03:12:14.952Z,4
2023-04-17T03:13:14.243Z,4
2023-04-17T03:14:14.526Z,4
2023-04-17T03:15:17.408Z,4
2023-04-17T03:16:14.933Z,4
2023-04-17T03:17:15.227Z,3
2023-04-17T03:18:14.771Z,3
2023-04-17T03:19:14.938Z,3
2023-04-17T03:20:14.761Z,3
2023-04-17T03:21:14.944Z,3
2023-04-17T03:22:17.588Z,1
2023-04-17T03:24:14.937Z,1
2023-04-17T03:25:15.288Z,1
2023-04-17T03:26:14.571Z,1
2023-04-17T03:27:14.549Z,0
2023-04-17T03:28:14.849Z,0
2023-04-17T03:29:15.633Z,0
2023-04-17T03:30:14.388Z,0
2023-04-17T03:31:14.752Z,0
2023-04-17T03:32:15.169Z,1
2023-04-17T03:33:14.866Z,1
2023-04-17T03:34:15.069Z,1
2023-04-17T03:35:14.332Z,1
2023-04-17T03:36:14.469Z,1
2023-04-17T03:37:14.794Z,6
2023-04-17T03:38:14.886Z,6
2023-04-17T03:39:15.992Z,6
2023-04-17T03:40:14.598Z,6
2023-04-17T03:41:14.557Z,6
2023-04-17T03:42:14.932Z,6
2023-04-17T03:43:15.010Z,6
2023-04-17T03:44:14.997Z,6
2023-04-17T03:45:14.324Z,6
2023-04-17T03:46:14.925Z,6
2023-04-17T03:47:14.998Z,5
2023-04-17T03:48:15.303Z,5
2023-04-17T03:49:15.130Z,5
2023-04-17T03:50:14.609Z,5
2023-04-17T03:51:14.754Z,5
2023-04-17T03:52:15.094Z,5
2023-04-17T03:53:15.304Z,5
2023-04-17T03:54:14.529Z,5
2023-04-17T03:55:14.925Z,5
2023-04-17T03:56:14.622Z,5
2023-04-17T03:57:14.840Z,1
2023-04-17T03:58:15.072Z,1
2023-04-17T03:59:14.938Z,1
2023-04-17T04:00:14.827Z,1
2023-04-17T04:01:15.043Z,1
2023-04-17T04:02:14.621Z,1
2023-04-17T04:03:15.765Z,1
2023-04-17T04:04:15.959Z,1
2023-04-17T04:05:14.922Z,1
2023-04-17T04:06:14.375Z,1
2023-04-17T04:07:14.699Z,4
2023-04-17T04:08:14.899Z,4
2023-04-17T04:09:15.655Z,4
2023-04-17T04:10:14.420Z,4
2023-04-17T04:11:14.323Z,4
2023-04-17T04:12:14.714Z,3
2023-04-17T04:13:14.984Z,3
2023-04-17T04:14:14.426Z,3
2023-04-17T04:15:14.658Z,3
2023-04-17T04:16:15.073Z,3
2023-04-17T04:17:14.936Z,5
2023-04-17T04:18:15.295Z,5
2023-04-17T04:19:14.775Z,5
2023-04-17T04:20:14.371Z,5
2023-04-17T04:21:14.657Z,5
2023-04-17T04:22:15.696Z,3
2023-04-17T04:23:15.031Z,3
2023-04-17T04:24:14.340Z,3
2023-04-17T04:25:14.731Z,3
2023-04-17T04:26:14.871Z,3
2023-04-17T04:27:16.584Z,0
2023-04-17T04:28:14.433Z,0
2023-04-17T04:29:15.998Z,0
2023-04-17T04:30:14.752Z,0
2023-04-17T04:31:15.347Z,0
2023-04-17T04:32:14.617Z,0
2023-04-17T04:33:15.055Z,0
2023-04-17T04:34:15.052Z,0
2023-04-17T04:35:14.224Z,0
2023-04-17T04:36:14.520Z,0
2023-04-17T04:37:14.951Z,1
2023-04-17T04:38:17.793Z,1
2023-04-17T04:39:14.871Z,1
2023-04-17T04:40:14.899Z,1
2023-04-17T04:41:15.325Z,1
2023-04-17T04:42:14.560Z,0
2023-04-17T04:43:14.836Z,0
2023-04-17T04:44:14.895Z,0
2023-04-17T04:45:14.323Z,0
2023-04-17T04:46:14.880Z,0
2023-04-17T04:47:15.359Z,3
2023-04-17T04:48:15.508Z,3
2023-04-17T04:49:15.317Z,3
2023-04-17T04:50:14.926Z,3
2023-04-17T04:51:14.263Z,3
2023-04-17T04:52:14.724Z,0
2023-04-17T04:53:15.066Z,0
2023-04-17T04:54:14.300Z,0
2023-04-17T04:55:14.464Z,0
2023-04-17T04:56:14.966Z,0
2023-04-17T04:57:15.257Z,0
2023-04-17T04:58:14.546Z,0
2023-04-17T04:59:15.232Z,0
2023-04-17T05:00:15.344Z,0
2023-04-17T05:01:15.179Z,0
2023-04-17T05:02:14.928Z,0
2023-04-17T05:03:16.040Z,0
2023-04-17T05:04:15.554Z,0
2023-04-17T05:05:15.482Z,0
2023-04-17T05:06:14.281Z,0
2023-04-17T05:07:14.614Z,0
2023-04-17T05:08:14.727Z,0
2023-04-17T05:09:17.703Z,0
2023-04-17T05:10:14.530Z,0
2023-04-17T05:11:14.748Z,0
2023-04-17T05:12:14.771Z,0
2023-04-17T05:13:15.248Z,0
2023-04-17T05:14:14.379Z,0
2023-04-17T05:15:14.677Z,0
2023-04-17T05:16:14.932Z,0
2023-04-17T05:17:14.857Z,0
2023-04-17T05:18:15.143Z,0
2023-04-17T05:19:15.883Z,0
2023-04-17T05:20:14.672Z,0
2023-04-17T05:21:14.641Z,0
2023-04-17T05:22:15.024Z,0
2023-04-17T05:23:14.280Z,0
2023-04-17T05:24:14.658Z,0
2023-04-17T05:25:14.957Z,0
2023-04-17T05:26:14.457Z,0
2023-04-17T05:27:14.662Z,1
2023-04-17T05:28:17.724Z,1
2023-04-17T05:29:14.894Z,1
2023-04-17T05:30:14.476Z,1
2023-04-17T05:31:14.466Z,1
2023-04-17T05:32:14.621Z,1
2023-04-17T05:33:14.964Z,1
2023-04-17T05:34:14.964Z,1
2023-04-17T05:35:15.335Z,1
2023-04-17T05:36:14.540Z,1
2023-04-17T05:37:14.830Z,0
2023-04-17T05:38:14.993Z,0
2023-04-17T05:39:15.891Z,0
2023-04-17T05:40:14.377Z,0
2023-04-17T05:41:14.590Z,0
2023-04-17T05:42:14.952Z,1
2023-04-17T05:43:14.931Z,1
2023-04-17T05:44:14.189Z,1
2023-04-17T05:45:14.746Z,1
2023-04-17T05:46:14.703Z,1
2023-04-17T05:47:14.940Z,1
2023-04-17T05:48:15.216Z,1
2023-04-17T05:49:14.952Z,1
2023-04-17T05:50:14.433Z,1
2023-04-17T05:51:14.652Z,1
2023-04-17T05:52:14.922Z,3
2023-04-17T05:53:14.388Z,3
2023-04-17T05:54:14.728Z,3
2023-04-17T05:55:14.932Z,3
2023-04-17T05:56:15.180Z,3
2023-04-17T05:57:14.290Z,4
2023-04-17T05:58:31.257Z,4
2023-04-17T06:00:15.053Z,4
2023-04-17T06:01:14.329Z,4
2023-04-17T06:02:15.005Z,0
2023-04-17T06:03:18.111Z,0
2023-04-17T06:04:18.134Z,0
2023-04-17T06:05:15.443Z,0
2023-04-17T06:06:14.366Z,0
2023-04-17T06:07:14.855Z,0
2023-04-17T06:08:14.906Z,0
2023-04-17T06:09:15.667Z,0
2023-04-17T06:10:14.391Z,0
2023-04-17T06:11:14.575Z,0
2023-04-17T06:12:14.765Z,0
2023-04-17T06:13:15.008Z,0
2023-04-17T06:14:14.466Z,0
2023-04-17T06:15:16.103Z,0
2023-04-17T06:16:14.576Z,0
2023-04-17T06:17:15.298Z,1
2023-04-17T06:18:14.668Z,1
2023-04-17T06:19:15.606Z,1
2023-04-17T06:20:15.157Z,1
2023-04-17T06:21:14.408Z,1
2023-04-17T06:22:14.812Z,1
2023-04-17T06:23:14.973Z,1
2023-04-17T06:24:15.136Z,1
2023-04-17T06:25:14.524Z,1
2023-04-17T06:26:14.668Z,1
2023-04-17T06:27:14.948Z,0
2023-04-17T06:28:14.366Z,0
2023-04-17T06:29:15.232Z,0
2023-04-17T06:30:14.786Z,0
2023-04-17T06:31:15.048Z,0
2023-04-17T06:32:14.814Z,1
2023-04-17T06:33:15.285Z,1
2023-04-17T06:34:14.615Z,1
2023-04-17T06:35:14.727Z,1
2023-04-17T06:36:14.410Z,1
2023-04-17T06:37:14.684Z,0
2023-04-17T06:38:15.096Z,0
2023-04-17T06:39:15.780Z,0
2023-04-17T06:40:14.381Z,0
2023-04-17T06:41:14.630Z,0
2023-04-17T06:42:14.785Z,0
2023-04-17T06:43:15.014Z,0
2023-04-17T06:44:15.153Z,0
2023-04-17T06:45:14.127Z,0
2023-04-17T06:46:14.484Z,0
2023-04-17T06:47:14.524Z,0
2023-04-17T06:48:14.933Z,0
2023-04-17T06:49:15.570Z,0
2023-04-17T06:50:15.308Z,0
2023-04-17T06:51:14.507Z,0
2023-04-17T06:52:14.718Z,1
2023-04-17T06:53:14.795Z,1
2023-04-17T06:54:15.349Z,1
2023-04-17T06:55:14.217Z,1
2023-04-17T06:56:14.344Z,1
2023-04-17T06:57:14.688Z,3
2023-04-17T06:58:14.768Z,3
2023-04-17T06:59:16.013Z,3
2023-04-17T07:00:15.302Z,3
2023-04-17T07:01:15.195Z,3
2023-04-17T07:02:15.684Z,0
2023-04-17T07:03:15.133Z,0
2023-04-17T07:04:15.272Z,0
2023-04-17T07:05:14.680Z,0
2023-04-17T07:06:14.743Z,0
2023-04-17T07:07:14.818Z,0
2023-04-17T07:08:14.905Z,0
2023-04-17T07:09:14.923Z,0
2023-04-17T07:10:14.940Z,0
2023-04-17T07:11:15.227Z,0
2023-04-17T07:12:14.386Z,0
2023-04-17T07:13:14.680Z,0
2023-04-17T07:14:17.368Z,0
2023-04-17T07:16:15.289Z,0
2023-04-17T07:17:14.887Z,1
2023-04-17T07:18:15.573Z,1
2023-04-17T07:19:14.994Z,1
2023-04-17T07:20:14.633Z,1
2023-04-17T07:21:14.793Z,1
2023-04-17T07:22:15.095Z,0
2023-04-17T07:23:14.320Z,0
2023-04-17T07:24:14.409Z,0
2023-04-17T07:25:14.902Z,0
2023-04-17T07:26:14.464Z,0
2023-04-17T07:27:14.815Z,0
2023-04-17T07:28:14.967Z,0
2023-04-17T07:29:15.597Z,0
2023-04-17T07:30:14.538Z,0
2023-04-17T07:31:14.985Z,0
2023-04-17T07:32:14.739Z,0
2023-04-17T07:33:15.372Z,0
2023-04-17T07:34:15.210Z,0
2023-04-17T07:35:14.243Z,0
2023-04-17T07:36:14.519Z,0
2023-04-17T07:37:14.692Z,1
2023-04-17T07:38:14.774Z,1
2023-04-17T07:39:15.651Z,1
2023-04-17T07:40:14.800Z,1
2023-04-17T07:41:14.794Z,1
2023-04-17T07:42:15.053Z,3
2023-04-17T07:43:15.085Z,3
2023-04-17T07:44:14.415Z,3
2023-04-17T07:45:14.629Z,3
2023-04-17T07:46:14.976Z,3
2023-04-17T07:47:14.611Z,1
2023-04-17T07:48:15.025Z,1
2023-04-17T07:49:18.923Z,1
2023-04-17T07:50:15.332Z,1
2023-04-17T07:51:14.904Z,1
2023-04-17T07:52:15.231Z,1
2023-04-17T07:53:14.209Z,1
2023-04-17T07:54:14.426Z,1
2023-04-17T07:55:14.567Z,1
2023-04-17T07:56:16.981Z,1
2023-04-17T07:57:15.027Z,1
2023-04-17T07:58:14.260Z,1
2023-04-17T07:59:15.277Z,1
2023-04-17T08:00:14.813Z,1
2023-04-17T08:01:15.108Z,1
2023-04-17T08:02:15.633Z,5
2023-04-17T08:03:16.085Z,5
2023-04-17T08:04:15.696Z,5
2023-04-17T08:05:15.392Z,5
2023-04-17T08:06:14.204Z,5
2023-04-17T08:07:14.510Z,3
2023-04-17T08:08:14.596Z,3
2023-04-17T08:09:15.747Z,3
2023-04-17T08:10:15.357Z,3
2023-04-17T08:11:14.367Z,3
2023-04-17T08:12:14.837Z,1
2023-04-17T08:13:14.840Z,1
2023-04-17T08:14:14.855Z,1
2023-04-17T08:15:14.526Z,1
2023-04-17T08:16:14.719Z,1
2023-04-17T08:17:15.287Z,3
2023-04-17T08:18:14.409Z,3
2023-04-17T08:19:14.900Z,3
2023-04-17T08:20:14.962Z,3
2023-04-17T08:21:14.220Z,3
2023-04-17T08:22:14.638Z,4
2023-04-17T08:23:14.864Z,4
2023-04-17T08:24:15.888Z,4
2023-04-17T08:25:14.475Z,4
2023-04-17T08:26:14.936Z,4
2023-04-17T08:27:15.194Z,4
2023-04-17T08:28:14.165Z,4
2023-04-17T08:29:15.423Z,4
2023-04-17T08:30:21.643Z,4
2023-04-17T08:31:15.346Z,4
2023-04-17T08:32:22.335Z,4
2023-04-17T08:34:23.525Z,4
2023-04-17T08:36:17.617Z,4
2023-04-17T08:37:14.414Z,0
2023-04-17T08:38:14.574Z,0
2023-04-17T08:39:15.455Z,0
2023-04-17T08:40:15.074Z,0
2023-04-17T08:41:14.990Z,0
2023-04-17T08:42:21.222Z,1
2023-04-17T08:44:14.794Z,1
2023-04-17T08:45:15.072Z,1
2023-04-17T08:46:14.664Z,1
2023-04-17T08:47:14.555Z,4
2023-04-17T08:48:15.038Z,4
2023-04-17T08:49:15.914Z,4
2023-04-17T08:50:14.417Z,4
2023-04-17T08:51:14.724Z,4
2023-04-17T08:52:14.795Z,3
2023-04-17T08:53:15.101Z,3
2023-04-17T08:54:14.280Z,3
2023-04-17T08:55:14.692Z,3
2023-04-17T08:56:17.461Z,3
2023-04-17T08:57:15.211Z,1
2023-04-17T08:58:14.436Z,1
2023-04-17T08:59:15.239Z,1
2023-04-17T09:00:15.023Z,1
2023-04-17T09:01:14.974Z,1
2023-04-17T09:02:15.949Z,5
2023-04-17T09:03:16.001Z,5
2023-04-17T09:04:16.687Z,5
2023-04-17T09:05:14.451Z,5
2023-04-17T09:06:14.330Z,5
2023-04-17T09:07:14.766Z,3
2023-04-17T09:08:14.918Z,3
2023-04-17T09:09:15.832Z,3
2023-04-17T09:10:14.706Z,3
2023-04-17T09:11:14.390Z,3
2023-04-17T09:12:14.871Z,4
2023-04-17T09:13:15.194Z,4
2023-04-17T09:14:14.253Z,4
2023-04-17T09:15:14.408Z,4
2023-04-17T09:16:15.379Z,4
2023-04-17T09:17:14.933Z,3
2023-04-17T09:18:14.604Z,3
2023-04-17T09:19:15.085Z,3
2023-04-17T09:20:14.890Z,3
2023-04-17T09:21:15.169Z,3
2023-04-17T09:22:14.464Z,1
2023-04-17T09:23:14.435Z,1
2023-04-17T09:24:14.834Z,1
2023-04-17T09:25:15.053Z,1
2023-04-17T09:26:14.688Z,1
2023-04-17T09:27:14.853Z,3
2023-04-17T09:28:14.423Z,3
2023-04-17T09:29:16.034Z,3
2023-04-17T09:30:14.580Z,3
2023-04-17T09:31:16.899Z,3
2023-04-17T09:32:15.041Z,3
2023-04-17T09:33:15.284Z,3
2023-04-17T09:34:14.455Z,3
2023-04-17T09:35:14.877Z,3
2023-04-17T09:36:14.540Z,3
2023-04-17T09:37:14.786Z,3
2023-04-17T09:38:14.851Z,3
2023-04-17T09:39:15.573Z,3
2023-04-17T09:40:14.382Z,3
2023-04-17T09:41:14.575Z,3
2023-04-17T09:42:14.875Z,4
2023-04-17T09:43:18.123Z,4
2023-04-17T09:44:14.706Z,4
2023-04-17T09:45:14.704Z,4
2023-04-17T09:46:15.028Z,4
2023-04-17T09:47:14.916Z,6
2023-04-17T09:48:15.230Z,6
2023-04-17T09:49:14.459Z,6
2023-04-17T09:50:14.919Z,6
2023-04-17T09:51:15.163Z,6
2023-04-17T09:52:15.055Z,5
2023-04-17T09:53:14.904Z,5
2023-04-17T09:54:15.655Z,5
2023-04-17T09:55:15.587Z,5
2023-04-17T09:56:14.515Z,5
2023-04-17T09:57:14.869Z,6
2023-04-17T09:58:15.235Z,6
2023-04-17T09:59:14.343Z,6
2023-04-17T10:00:14.890Z,6
2023-04-17T10:01:15.576Z,6
2023-04-17T10:02:15.152Z,7
2023-04-17T10:03:15.566Z,7
2023-04-17T10:04:16.863Z,7
2023-04-17T10:05:15.119Z,7
2023-04-17T10:06:14.906Z,7
2023-04-17T10:07:15.413Z,6
2023-04-17T10:08:14.849Z,6
2023-04-17T10:09:14.944Z,6
2023-04-17T10:10:14.968Z,6
2023-04-17T10:11:14.255Z,6
2023-04-17T10:12:14.684Z,3
2023-04-17T10:13:14.908Z,3
2023-04-17T10:14:16.520Z,3
2023-04-17T10:15:14.316Z,3
2023-04-17T10:16:14.766Z,3
2023-04-17T10:17:14.911Z,6
2023-04-17T10:18:14.501Z,6
2023-04-17T10:19:14.866Z,6
2023-04-17T10:20:14.607Z,6
2023-04-17T10:21:15.257Z,6
2023-04-17T10:22:15.153Z,7
2023-04-17T10:23:14.503Z,7
2023-04-17T10:24:15.386Z,7
2023-04-17T10:25:15.194Z,7
2023-04-17T10:26:15.200Z,7
2023-04-17T10:27:16.934Z,4
2023-04-17T10:28:14.167Z,4
2023-04-17T10:29:15.070Z,4
2023-04-17T10:30:14.750Z,4
2023-04-17T10:31:14.158Z,4
2023-04-17T10:32:14.876Z,4
2023-04-17T10:33:17.126Z,4
2023-04-17T10:34:15.484Z,4
2023-04-17T10:35:15.460Z,4
2023-04-17T10:36:14.698Z,4
2023-04-17T10:37:14.694Z,7
2023-04-17T10:38:15.142Z,7
2023-04-17T10:39:15.235Z,7
2023-04-17T10:40:16.508Z,7
2023-04-17T10:41:14.928Z,7
2023-04-17T10:42:15.085Z,8
2023-04-17T10:43:14.294Z,8
2023-04-17T10:44:14.427Z,8
2023-04-17T10:45:14.758Z,8
2023-04-17T10:46:15.142Z,8
2023-04-17T10:47:14.848Z,8
2023-04-17T10:48:15.770Z,8
2023-04-17T10:49:15.076Z,8
2023-04-17T10:50:14.669Z,8
2023-04-17T10:51:14.807Z,8
2023-04-17T10:52:15.283Z,4
2023-04-17T10:53:16.249Z,4
2023-04-17T10:54:14.816Z,4
2023-04-17T10:55:14.968Z,4
2023-04-17T10:56:14.151Z,4
2023-04-17T10:57:15.198Z,5
2023-04-17T10:58:14.487Z,5
2023-04-17T10:59:15.859Z,5
2023-04-17T11:00:14.992Z,5
2023-04-17T11:01:14.602Z,5
2023-04-17T11:02:15.003Z,3
2023-04-17T11:03:15.155Z,3
2023-04-17T11:04:15.482Z,3
2023-04-17T11:05:14.443Z,3
2023-04-17T11:06:14.548Z,3
2023-04-17T11:07:14.845Z,3
2023-04-17T11:08:15.121Z,3
2023-04-17T11:09:15.131Z,3
2023-04-17T11:10:14.528Z,3
2023-04-17T11:11:15.528Z,3
2023-04-17T11:12:14.847Z,4
2023-04-17T11:13:15.008Z,4
2023-04-17T11:14:17.767Z,4
2023-04-17T11:16:14.191Z,4
2023-04-17T11:17:14.793Z,6
2023-04-17T11:18:14.880Z,6
2023-04-17T11:19:15.739Z,6
2023-04-17T11:20:15.313Z,6
2023-04-17T11:21:14.410Z,6
2023-04-17T11:22:14.549Z,7
2023-04-17T11:23:14.829Z,7
2023-04-17T11:24:14.887Z,7
2023-04-17T11:25:15.034Z,7
2023-04-17T11:26:14.995Z,7
2023-04-17T11:27:15.215Z,0
2023-04-17T11:28:14.377Z,0
2023-04-17T11:29:15.013Z,0
2023-04-17T11:30:15.004Z,0
2023-04-17T11:31:17.201Z,0
2023-04-17T11:32:14.283Z,6
2023-04-17T11:33:15.085Z,6
2023-04-17T11:34:16.188Z,6
2023-04-17T11:35:15.451Z,6
2023-04-17T11:36:14.710Z,6
2023-04-17T11:37:14.839Z,5
2023-04-17T11:38:14.511Z,5
2023-04-17T11:39:14.875Z,5
2023-04-17T11:40:15.003Z,5
2023-04-17T11:41:14.853Z,5
2023-04-17T11:42:15.238Z,1
2023-04-17T11:43:14.402Z,1
2023-04-17T11:44:14.882Z,1
2023-04-17T11:45:15.247Z,1
2023-04-17T11:46:14.534Z,1
2023-04-17T11:47:14.523Z,4
2023-04-17T11:48:14.850Z,4
2023-04-17T11:49:15.711Z,4
2023-04-17T11:50:14.544Z,4
2023-04-17T11:51:14.707Z,4
2023-04-17T11:52:17.166Z,3
2023-04-17T11:53:15.027Z,3
2023-04-17T11:54:14.605Z,3
2023-04-17T11:55:14.610Z,3
2023-04-17T11:56:14.750Z,3
2023-04-17T11:57:15.089Z,3
2023-04-17T11:58:14.514Z,3
2023-04-17T11:59:15.282Z,3
2023-04-17T12:00:14.795Z,3
2023-04-17T12:01:14.581Z,3
2023-04-17T12:02:15.371Z,1
2023-04-17T12:03:16.419Z,1
2023-04-17T12:04:16.426Z,1
2023-04-17T12:05:16.157Z,1
2023-04-17T12:06:14.061Z,1
2023-04-17T12:07:14.835Z,5
2023-04-17T12:08:15.024Z,5
2023-04-17T12:09:16.090Z,5
2023-04-17T12:10:14.711Z,5
2023-04-17T12:11:14.486Z,5
2023-04-17T12:12:14.915Z,7
2023-04-17T12:13:15.072Z,7
2023-04-17T12:14:15.115Z,7
2023-04-17T12:15:14.660Z,7
2023-04-17T12:16:14.631Z,7
2023-04-17T12:17:14.462Z,7
2023-04-17T12:18:14.997Z,7
2023-04-17T12:19:14.664Z,7
2023-04-17T12:20:15.093Z,7
2023-04-17T12:21:15.285Z,7
2023-04-17T12:22:14.507Z,4
2023-04-17T12:23:14.965Z,4
2023-04-17T12:24:15.862Z,4
2023-04-17T12:25:14.302Z,4
2023-04-17T12:26:14.761Z,4
2023-04-17T12:27:14.743Z,12
2023-04-17T12:28:15.038Z,12
2023-04-17T12:29:14.136Z,12
2023-04-17T12:30:14.604Z,12
2023-04-17T12:31:14.708Z,12
2023-04-17T12:32:15.427Z,3
2023-04-17T12:33:14.433Z,3
2023-04-17T12:34:14.953Z,3
2023-04-17T12:35:14.890Z,3
2023-04-17T12:36:15.519Z,3
2023-04-17T12:37:14.714Z,1
2023-04-17T12:38:14.675Z,1
2023-04-17T12:39:14.843Z,1
2023-04-17T12:40:15.142Z,1
2023-04-17T12:41:14.204Z,1
2023-04-17T12:42:14.329Z,3
2023-04-17T12:43:14.948Z,3
2023-04-17T12:44:15.424Z,3
2023-04-17T12:45:14.378Z,3
2023-04-17T12:46:14.938Z,3
2023-04-17T12:47:14.914Z,3
2023-04-17T12:48:15.125Z,3
2023-04-17T12:49:14.974Z,3
2023-04-17T12:50:14.612Z,3
2023-04-17T12:51:14.911Z,3
2023-04-17T12:52:15.143Z,3
2023-04-17T12:53:14.275Z,3
2023-04-17T12:54:15.172Z,3
2023-04-17T12:55:14.755Z,3
2023-04-17T12:56:14.878Z,3
2023-04-17T12:57:15.105Z,5
2023-04-17T12:58:15.342Z,5
2023-04-17T12:59:14.687Z,5
2023-04-17T13:00:14.926Z,5
2023-04-17T13:01:14.429Z,5
2023-04-17T13:02:15.207Z,5
2023-04-17T13:03:16.155Z,5
2023-04-17T13:04:16.525Z,5
2023-04-17T13:05:14.351Z,5
2023-04-17T13:06:15.215Z,5
2023-04-17T13:07:14.405Z,3
2023-04-17T13:08:14.544Z,3
2023-04-17T13:09:15.200Z,3
2023-04-17T13:10:14.893Z,3
2023-04-17T13:11:15.146Z,3
2023-04-17T13:12:14.446Z,6
2023-04-17T13:13:14.637Z,6
2023-04-17T13:14:15.420Z,6
2023-04-17T13:15:15.122Z,6
2023-04-17T13:16:15.139Z,6
2023-04-17T13:17:16.469Z,14
2023-04-17T13:18:15.042Z,14
2023-04-17T13:19:15.499Z,14
2023-04-17T13:20:14.799Z,14
2023-04-17T13:21:14.349Z,14
2023-04-17T13:22:14.888Z,5
2023-04-17T13:23:15.057Z,5
2023-04-17T13:24:15.127Z,5
2023-04-17T13:25:14.486Z,5
2023-04-17T13:26:14.350Z,5
2023-04-17T13:27:14.436Z,6
2023-04-17T13:28:14.722Z,6
2023-04-17T13:29:17.850Z,6
2023-04-17T13:30:14.376Z,6
2023-04-17T13:31:15.149Z,6
2023-04-17T13:32:14.911Z,5
2023-04-17T13:33:15.335Z,5
2023-04-17T13:34:14.116Z,5
2023-04-17T13:35:14.648Z,5
2023-04-17T13:36:14.824Z,5
2023-04-17T13:37:15.000Z,7
2023-04-17T13:38:14.335Z,7
2023-04-17T13:39:15.375Z,7
2023-04-17T13:40:17.264Z,7
2023-04-17T13:41:15.203Z,7
2023-04-17T13:42:14.951Z,7
2023-04-17T13:43:14.385Z,7
2023-04-17T13:44:14.896Z,7
2023-04-17T13:45:15.072Z,7
2023-04-17T13:46:15.014Z,7
2023-04-17T13:47:15.106Z,5
2023-04-17T13:48:14.783Z,5
2023-04-17T13:49:15.353Z,5
2023-04-17T13:50:15.126Z,5
2023-04-17T13:51:15.000Z,5
2023-04-17T13:52:14.435Z,13
2023-04-17T13:53:17.632Z,13
2023-04-17T13:54:14.738Z,13
2023-04-17T13:55:15.050Z,13
2023-04-17T13:56:15.176Z,13
2023-04-17T13:57:14.350Z,6
2023-04-17T13:58:14.780Z,6
2023-04-17T13:59:15.619Z,6
2023-04-17T14:00:15.291Z,6
2023-04-17T14:01:15.113Z,6
2023-04-17T14:02:15.716Z,4
2023-04-17T14:03:15.442Z,4
2023-04-17T14:04:15.899Z,4
2023-04-17T14:05:15.019Z,4
2023-04-17T14:06:14.610Z,4
2023-04-17T14:07:14.771Z,4
2023-04-17T14:08:14.925Z,4
2023-04-17T14:09:15.219Z,4
2023-04-17T14:10:14.871Z,4
2023-04-17T14:11:15.163Z,4
2023-04-17T14:12:14.280Z,4
2023-04-17T14:13:14.688Z,4
2023-04-17T14:14:14.674Z,4
2023-04-17T14:15:14.851Z,4
2023-04-17T14:16:14.414Z,4
2023-04-17T14:17:14.637Z,4
2023-04-17T14:18:15.094Z,4
2023-04-17T14:19:23.368Z,4
2023-04-17T14:21:15.058Z,4
2023-04-17T14:22:14.167Z,4
2023-04-17T14:23:14.555Z,4
2023-04-17T14:24:14.848Z,4
2023-04-17T14:25:15.274Z,4
2023-04-17T14:26:14.295Z,4
2023-04-17T14:27:14.573Z,3
2023-04-17T14:28:14.867Z,3
2023-04-17T14:29:16.543Z,3
2023-04-17T14:30:14.126Z,3
2023-04-17T14:31:15.283Z,3
2023-04-17T14:32:14.937Z,5
2023-04-17T14:33:14.262Z,5
2023-04-17T14:34:14.424Z,5
2023-04-17T14:35:14.616Z,5
2023-04-17T14:36:14.892Z,5
2023-04-17T14:37:14.871Z,3
2023-04-17T14:38:15.457Z,3
2023-04-17T14:39:15.350Z,3
2023-04-17T14:40:14.890Z,3
2023-04-17T14:41:15.507Z,3
2023-04-17T14:42:15.679Z,4
2023-04-17T14:45:15.062Z,4
2023-04-17T14:46:15.681Z,4
2023-04-17T14:49:14.962Z,5
2023-04-17T14:51:14.701Z,5
2023-04-17T14:52:15.333Z,5
2023-04-17T14:53:15.358Z,5
2023-04-17T14:54:15.573Z,5
2023-04-17T14:55:15.203Z,5
2023-04-17T14:56:14.864Z,5
2023-04-17T14:57:15.130Z,7
2023-04-17T14:58:15.627Z,7
2023-04-17T14:59:15.585Z,7